sensor_id;sensor_type;location;lat;lon;timestamp;pressure;altitude;pressure_sealevel;temperature;humidity
10940;BME280;5522;42.696;23.494;2023-10-13T00:01:04;53690.97;;;-139.68;100.00
10940;BME280;5522;42.696;23.494;2023-10-13T00:03:33;53735.19;;;-139.68;100.00
10940;BME280;5522;42.696;23.494;2023-10-13T00:06:02;53757.31;;;-139.68;100.00
10940;BME280;5522;42.696;23.494;2023-10-13T00:08:29;53652.78;;;-139.68;100.00
10940;BME280;5522;42.696;23.494;2023-10-13T00:10:56;53743.25;;;-139.68;100.00
10940;BME280;5522;42.696;23.494;2023-10-13T00:13:26;53707.06;;;-139.68;100.00
10940;BME280;5522;42.696;23.494;2023-10-13T00:15:54;53699.03;;;-139.68;100.00
10940;BME280;5522;42.696;23.494;2023-10-13T00:18:24;53697.00;;;-139.68;100.00
10940;BME280;5522;42.696;23.494;2023-10-13T00:20:54;53711.09;;;-139.68;100.00
10940;BME280;5522;42.696;23.494;2023-10-13T00:23:23;53686.97;;;-139.68;100.00
10940;BME280;5522;42.696;23.494;2023-10-13T00:25:53;53763.34;;;-139.68;100.00
10940;BME280;5522;42.696;23.494;2023-10-13T00:28:28;53723.13;;;-139.68;100.00
10940;BME280;5522;42.696;23.494;2023-10-13T00:31:08;53717.13;;;-139.68;100.00
10940;BME280;5522;42.696;23.494;2023-10-13T00:33:37;53695.00;;;-139.68;100.00
10940;BME280;5522;42.696;23.494;2023-10-13T00:36:08;53688.97;;;-139.68;100.00
10940;BME280;5522;42.696;23.494;2023-10-13T00:38:42;53682.94;;;-139.68;100.00
10940;BME280;5522;42.696;23.494;2023-10-13T00:41:14;53693.00;;;-139.68;100.00
10940;BME280;5522;42.696;23.494;2023-10-13T00:43:45;53690.97;;;-139.68;100.00
10940;BME280;5522;42.696;23.494;2023-10-13T00:46:31;53719.13;;;-139.68;100.00
10940;BME280;5522;42.696;23.494;2023-10-13T00:48:59;53695.00;;;-139.68;100.00
10940;BME280;5522;42.696;23.494;2023-10-13T00:51:28;53713.09;;;-139.68;100.00
10940;BME280;5522;42.696;23.494;2023-10-13T00:54:04;53709.06;;;-139.68;100.00
10940;BME280;5522;42.696;23.494;2023-10-13T00:56:38;53711.09;;;-139.68;100.00
10940;BME280;5522;42.696;23.494;2023-10-13T00:59:13;53662.84;;;-139.68;100.00
10940;BME280;5522;42.696;23.494;2023-10-13T01:06:51;53703.03;;;-139.68;100.00
10940;BME280;5522;42.696;23.494;2023-10-13T01:09:18;53723.13;;;-139.68;100.00
10940;BME280;5522;42.696;23.494;2023-10-13T01:11:45;53703.03;;;-139.68;100.00
10940;BME280;5522;42.696;23.494;2023-10-13T01:14:13;53711.09;;;-139.68;100.00
10940;BME280;5522;42.696;23.494;2023-10-13T01:16:42;53697.00;;;-139.68;100.00
10940;BME280;5522;42.696;23.494;2023-10-13T01:19:10;53666.84;;;-139.68;100.00
10940;BME280;5522;42.696;23.494;2023-10-13T01:21:38;53739.22;;;-139.68;100.00
10940;BME280;5522;42.696;23.494;2023-10-13T01:24:08;53703.03;;;-139.68;100.00
10940;BME280;5522;42.696;23.494;2023-10-13T01:26:34;53711.09;;;-139.68;100.00
10940;BME280;5522;42.696;23.494;2023-10-13T01:29:05;53672.88;;;-139.68;100.00
10940;BME280;5522;42.696;23.494;2023-10-13T01:31:40;53721.13;;;-139.68;100.00
10940;BME280;5522;42.696;23.494;2023-10-13T01:34:12;53721.13;;;-139.68;100.00
10940;BME280;5522;42.696;23.494;2023-10-13T01:36:38;53743.25;;;-139.68;100.00
10940;BME280;5522;42.696;23.494;2023-10-13T01:39:08;53697.00;;;-139.68;100.00
10940;BME280;5522;42.696;23.494;2023-10-13T01:41:36;53723.13;;;-139.68;100.00
10940;BME280;5522;42.696;23.494;2023-10-13T01:44:04;53676.91;;;-139.68;100.00
10940;BME280;5522;42.696;23.494;2023-10-13T01:46:30;53686.97;;;-139.68;100.00
10940;BME280;5522;42.696;23.494;2023-10-13T01:48:58;53688.97;;;-139.68;100.00
10940;BME280;5522;42.696;23.494;2023-10-13T01:51:23;53668.88;;;-139.68;100.00
10940;BME280;5522;42.696;23.494;2023-10-13T01:53:52;53699.03;;;-139.68;100.00
10940;BME280;5522;42.696;23.494;2023-10-13T01:56:23;53674.91;;;-139.68;100.00
10940;BME280;5522;42.696;23.494;2023-10-13T01:58:50;53695.00;;;-139.68;100.00
10940;BME280;5522;42.696;23.494;2023-10-13T02:01:17;53652.78;;;-139.68;100.00
10940;BME280;5522;42.696;23.494;2023-10-13T02:03:52;53660.81;;;-139.68;100.00
10940;BME280;5522;42.696;23.494;2023-10-13T02:06:27;53719.13;;;-139.68;100.00
10940;BME280;5522;42.696;23.494;2023-10-13T02:08:58;53682.94;;;-139.68;100.00
10940;BME280;5522;42.696;23.494;2023-10-13T02:11:32;53727.16;;;-139.68;100.00
10940;BME280;5522;42.696;23.494;2023-10-13T02:13:59;53676.91;;;-139.68;100.00
10940;BME280;5522;42.696;23.494;2023-10-13T02:16:25;53684.94;;;-139.68;100.00
10940;BME280;5522;42.696;23.494;2023-10-13T02:18:53;53695.00;;;-139.68;100.00
10940;BME280;5522;42.696;23.494;2023-10-13T02:21:18;53690.97;;;-139.68;100.00
10940;BME280;5522;42.696;23.494;2023-10-13T02:23:45;53668.88;;;-139.68;100.00
10940;BME280;5522;42.696;23.494;2023-10-13T02:26:25;53684.94;;;-139.68;100.00
10940;BME280;5522;42.696;23.494;2023-10-13T02:28:57;53699.03;;;-139.68;100.00
10940;BME280;5522;42.696;23.494;2023-10-13T02:31:23;53695.00;;;-139.68;100.00
10940;BME280;5522;42.696;23.494;2023-10-13T02:33:51;53701.03;;;-139.68;100.00
10940;BME280;5522;42.696;23.494;2023-10-13T02:36:16;53666.84;;;-139.68;100.00
10940;BME280;5522;42.696;23.494;2023-10-13T02:38:48;53670.88;;;-139.68;100.00
10940;BME280;5522;42.696;23.494;2023-10-13T02:41:18;53699.03;;;-139.68;100.00
10940;BME280;5522;42.696;23.494;2023-10-13T02:43:50;53715.09;;;-139.68;100.00
10940;BME280;5522;42.696;23.494;2023-10-13T02:46:18;53646.75;;;-139.68;100.00
10940;BME280;5522;42.696;23.494;2023-10-13T02:48:47;53672.88;;;-139.68;100.00
10940;BME280;5522;42.696;23.494;2023-10-13T02:51:20;53656.81;;;-139.68;100.00
10940;BME280;5522;42.696;23.494;2023-10-13T02:53:51;53684.94;;;-139.68;100.00
10940;BME280;5522;42.696;23.494;2023-10-13T02:56:18;53701.03;;;-139.68;100.00
10940;BME280;5522;42.696;23.494;2023-10-13T02:58:47;53727.16;;;-139.68;100.00
10940;BME280;5522;42.696;23.494;2023-10-13T03:01:20;53686.97;;;-139.68;100.00
10940;BME280;5522;42.696;23.494;2023-10-13T03:03:53;53711.09;;;-139.68;100.00
10940;BME280;5522;42.696;23.494;2023-10-13T03:06:21;53711.09;;;-139.68;100.00
10940;BME280;5522;42.696;23.494;2023-10-13T03:08:50;53719.13;;;-139.68;100.00
10940;BME280;5522;42.696;23.494;2023-10-13T03:11:17;53662.84;;;-139.68;100.00
10940;BME280;5522;42.696;23.494;2023-10-13T03:13:47;53670.88;;;-139.68;100.00
10940;BME280;5522;42.696;23.494;2023-10-13T03:16:14;53682.94;;;-139.68;100.00
10940;BME280;5522;42.696;23.494;2023-10-13T03:18:48;53660.81;;;-139.68;100.00
10940;BME280;5522;42.696;23.494;2023-10-13T03:21:20;53686.97;;;-139.68;100.00
10940;BME280;5522;42.696;23.494;2023-10-13T03:23:57;53707.06;;;-139.68;100.00
10940;BME280;5522;42.696;23.494;2023-10-13T03:26:30;53731.19;;;-139.68;100.00
10940;BME280;5522;42.696;23.494;2023-10-13T03:29:02;53697.00;;;-139.68;100.00
10940;BME280;5522;42.696;23.494;2023-10-13T03:31:29;53684.94;;;-139.68;100.00
10940;BME280;5522;42.696;23.494;2023-10-13T03:34:04;53666.84;;;-139.68;100.00
10940;BME280;5522;42.696;23.494;2023-10-13T03:36:38;53658.81;;;-139.68;100.00
10940;BME280;5522;42.696;23.494;2023-10-13T03:39:23;53682.94;;;-139.68;100.00
10940;BME280;5522;42.696;23.494;2023-10-13T03:41:57;53686.97;;;-139.68;100.00
10940;BME280;5522;42.696;23.494;2023-10-13T03:44:25;53672.88;;;-139.68;100.00
10940;BME280;5522;42.696;23.494;2023-10-13T03:47:02;53666.84;;;-139.68;100.00
10940;BME280;5522;42.696;23.494;2023-10-13T03:49:44;53707.06;;;-139.68;100.00
10940;BME280;5522;42.696;23.494;2023-10-13T03:52:16;53682.94;;;-139.68;100.00
10940;BME280;5522;42.696;23.494;2023-10-13T03:54:48;53699.03;;;-139.68;100.00
10940;BME280;5522;42.696;23.494;2023-10-13T03:57:16;53674.91;;;-139.68;100.00
10940;BME280;5522;42.696;23.494;2023-10-13T03:59:44;53686.97;;;-139.68;100.00
10940;BME280;5522;42.696;23.494;2023-10-13T04:02:13;53684.94;;;-139.68;100.00
10940;BME280;5522;42.696;23.494;2023-10-13T04:04:45;53666.84;;;-139.68;100.00
10940;BME280;5522;42.696;23.494;2023-10-13T04:07:21;53662.84;;;-139.68;100.00
10940;BME280;5522;42.696;23.494;2023-10-13T04:10:26;53664.84;;;-139.68;100.00
10940;BME280;5522;42.696;23.494;2023-10-13T04:13:11;53650.78;;;-139.68;100.00
10940;BME280;5522;42.696;23.494;2023-10-13T04:15:54;53660.81;;;-139.68;100.00
10940;BME280;5522;42.696;23.494;2023-10-13T04:19:00;53650.78;;;-139.68;100.00
10940;BME280;5522;42.696;23.494;2023-10-13T04:21:36;53682.94;;;-139.68;100.00
10940;BME280;5522;42.696;23.494;2023-10-13T04:24:09;53731.19;;;-139.68;100.00
10940;BME280;5522;42.696;23.494;2023-10-13T04:26:50;53672.88;;;-139.68;100.00
10940;BME280;5522;42.696;23.494;2023-10-13T04:29:31;53699.03;;;-139.68;100.00
10940;BME280;5522;42.696;23.494;2023-10-13T04:32:16;53701.03;;;-139.68;100.00
10940;BME280;5522;42.696;23.494;2023-10-13T04:34:54;53697.00;;;-139.68;100.00
10940;BME280;5522;42.696;23.494;2023-10-13T04:37:25;53751.28;;;-139.68;100.00
10940;BME280;5522;42.696;23.494;2023-10-13T04:39:55;53654.78;;;-139.68;100.00
10940;BME280;5522;42.696;23.494;2023-10-13T04:42:25;53711.09;;;-139.68;100.00
10940;BME280;5522;42.696;23.494;2023-10-13T04:45:06;53699.03;;;-139.68;100.00
10940;BME280;5522;42.696;23.494;2023-10-13T04:48:03;53705.06;;;-139.68;100.00
10940;BME280;5522;42.696;23.494;2023-10-13T04:50:39;53682.94;;;-139.68;100.00
10940;BME280;5522;42.696;23.494;2023-10-13T04:53:12;53715.09;;;-139.68;100.00
10940;BME280;5522;42.696;23.494;2023-10-13T04:55:54;53666.84;;;-139.68;100.00
10940;BME280;5522;42.696;23.494;2023-10-13T04:58:54;53701.03;;;-139.68;100.00
10940;BME280;5522;42.696;23.494;2023-10-13T05:01:38;53715.09;;;-139.68;100.00
10940;BME280;5522;42.696;23.494;2023-10-13T05:04:23;53695.00;;;-139.68;100.00
10940;BME280;5522;42.696;23.494;2023-10-13T05:07:04;53729.16;;;-139.68;100.00
10940;BME280;5522;42.696;23.494;2023-10-13T05:09:49;53739.22;;;-139.68;100.00
10940;BME280;5522;42.696;23.494;2023-10-13T05:12:33;53731.19;;;-139.68;100.00
10940;BME280;5522;42.696;23.494;2023-10-13T05:15:18;53719.13;;;-139.68;100.00
10940;BME280;5522;42.696;23.494;2023-10-13T05:18:03;53761.34;;;-139.68;94.32
10940;BME280;5522;42.696;23.494;2023-10-13T05:20:48;53777.41;;;-139.68;88.11
10940;BME280;5522;42.696;23.494;2023-10-13T05:23:32;53761.34;;;-139.68;83.52
10940;BME280;5522;42.696;23.494;2023-10-13T05:26:18;53719.13;;;-139.68;75.55
10940;BME280;5522;42.696;23.494;2023-10-13T05:29:02;53757.31;;;-139.68;65.01
10940;BME280;5522;42.696;23.494;2023-10-13T05:31:47;53743.25;;;-139.68;60.35
10940;BME280;5522;42.696;23.494;2023-10-13T05:34:31;53791.50;;;-139.68;54.82
10940;BME280;5522;42.696;23.494;2023-10-13T05:37:15;53787.47;;;-139.68;51.62
10940;BME280;5522;42.696;23.494;2023-10-13T05:40:00;53789.47;;;-139.68;48.53
10940;BME280;5522;42.696;23.494;2023-10-13T05:42:48;53763.34;;;-139.68;44.89
10940;BME280;5522;42.696;23.494;2023-10-13T05:45:35;53789.47;;;-139.68;43.76
10940;BME280;5522;42.696;23.494;2023-10-13T05:48:26;53783.44;;;-139.68;43.59
10940;BME280;5522;42.696;23.494;2023-10-13T05:51:17;53805.56;;;-139.68;43.28
10940;BME280;5522;42.696;23.494;2023-10-13T05:54:09;53775.41;;;-139.68;43.71
10940;BME280;5522;42.696;23.494;2023-10-13T05:56:54;53779.44;;;-139.68;43.23
10940;BME280;5522;42.696;23.494;2023-10-13T05:59:40;53835.72;;;-139.68;42.50
10940;BME280;5522;42.696;23.494;2023-10-13T06:02:24;53791.50;;;-139.68;41.22
10940;BME280;5522;42.696;23.494;2023-10-13T06:05:10;53811.59;;;-139.68;38.86
10940;BME280;5522;42.696;23.494;2023-10-13T06:07:54;53811.59;;;-139.68;38.03
10940;BME280;5522;42.696;23.494;2023-10-13T06:10:40;53811.59;;;-139.68;37.69
10940;BME280;5522;42.696;23.494;2023-10-13T06:13:24;53783.44;;;-139.68;36.73
10940;BME280;5522;42.696;23.494;2023-10-13T06:16:11;53839.75;;;-139.68;37.23
10940;BME280;5522;42.696;23.494;2023-10-13T06:18:55;53845.78;;;-139.68;36.75
10940;BME280;5522;42.696;23.494;2023-10-13T06:21:39;53831.69;;;-139.68;36.01
10940;BME280;5522;42.696;23.494;2023-10-13T06:24:35;53863.88;;;-139.68;35.98
10940;BME280;5522;42.696;23.494;2023-10-13T06:27:19;53845.78;;;-139.68;36.18
10940;BME280;5522;42.696;23.494;2023-10-13T06:30:05;53795.50;;;-139.68;36.46
10940;BME280;5522;42.696;23.494;2023-10-13T06:44:45;53890.00;;;-139.68;34.18
10940;BME280;5522;42.696;23.494;2023-10-13T06:47:12;53861.84;;;-139.68;32.94
10940;BME280;5522;42.696;23.494;2023-10-13T06:49:39;53865.88;;;-139.68;33.24
10940;BME280;5522;42.696;23.494;2023-10-13T06:52:09;53881.97;;;-139.68;33.83
10940;BME280;5522;42.696;23.494;2023-10-13T06:54:36;53799.53;;;-139.68;34.26
10940;BME280;5522;42.696;23.494;2023-10-13T06:57:04;53853.81;;;-139.68;33.95
10940;BME280;5522;42.696;23.494;2023-10-13T06:59:32;53863.88;;;-139.68;33.85
10940;BME280;5522;42.696;23.494;2023-10-13T07:02:03;53869.91;;;-139.68;33.21
10940;BME280;5522;42.696;23.494;2023-10-13T07:04:32;53837.72;;;-139.68;33.56
10940;BME280;5522;42.696;23.494;2023-10-13T07:06:58;53839.75;;;-139.68;32.58
10940;BME280;5522;42.696;23.494;2023-10-13T07:09:26;53859.84;;;-139.68;31.77
10940;BME280;5522;42.696;23.494;2023-10-13T07:12:15;53869.91;;;-139.68;30.96
10940;BME280;5522;42.696;23.494;2023-10-13T07:14:47;53912.13;;;-139.68;32.47
10940;BME280;5522;42.696;23.494;2023-10-13T07:17:20;53892.00;;;-139.68;32.20
10940;BME280;5522;42.696;23.494;2023-10-13T07:19:50;53918.16;;;-139.68;31.53
10940;BME280;5522;42.696;23.494;2023-10-13T07:22:22;53916.13;;;-139.68;32.12
10940;BME280;5522;42.696;23.494;2023-10-13T07:24:49;53871.91;;;-139.68;31.36
10940;BME280;5522;42.696;23.494;2023-10-13T07:27:18;53883.97;;;-139.68;31.40
10940;BME280;5522;42.696;23.494;2023-10-13T07:29:50;53859.84;;;-139.68;31.11
10940;BME280;5522;42.696;23.494;2023-10-13T07:32:23;53869.91;;;-139.68;30.84
10940;BME280;5522;42.696;23.494;2023-10-13T07:34:54;53912.13;;;-139.68;29.83
10940;BME280;5522;42.696;23.494;2023-10-13T07:37:23;53877.94;;;-139.68;30.51
10940;BME280;5522;42.696;23.494;2023-10-13T07:39:54;53896.03;;;-139.68;29.81
10940;BME280;5522;42.696;23.494;2023-10-13T07:42:23;53896.03;;;-139.68;31.09
10940;BME280;5522;42.696;23.494;2023-10-13T07:44:56;53883.97;;;-139.68;31.03
10940;BME280;5522;42.696;23.494;2023-10-13T07:47:24;53877.94;;;-139.68;30.99
10940;BME280;5522;42.696;23.494;2023-10-13T07:49:54;53900.06;;;-139.68;30.96
10940;BME280;5522;42.696;23.494;2023-10-13T07:52:22;53888.00;;;-139.68;30.63
10940;BME280;5522;42.696;23.494;2023-10-13T07:55:01;53902.06;;;-139.68;29.95
10940;BME280;5522;42.696;23.494;2023-10-13T07:57:36;53920.16;;;-139.68;30.29
10940;BME280;5522;42.696;23.494;2023-10-13T08:00:18;53924.16;;;-139.68;30.32
10940;BME280;5522;42.696;23.494;2023-10-13T08:02:59;53851.81;;;-139.68;30.75
10940;BME280;5522;42.696;23.494;2023-10-13T08:05:45;53920.16;;;-139.68;29.43
10940;BME280;5522;42.696;23.494;2023-10-13T08:08:24;53902.06;;;-139.68;29.68
10940;BME280;5522;42.696;23.494;2023-10-13T08:11:00;53883.97;;;-139.68;29.12
10940;BME280;5522;42.696;23.494;2023-10-13T08:13:34;53918.16;;;-139.68;28.91
10940;BME280;5522;42.696;23.494;2023-10-13T08:16:02;53906.06;;;-139.68;29.04
10940;BME280;5522;42.696;23.494;2023-10-13T08:18:35;53906.06;;;-139.68;29.32
10940;BME280;5522;42.696;23.494;2023-10-13T08:21:07;53906.06;;;-139.68;29.04
10940;BME280;5522;42.696;23.494;2023-10-13T08:23:42;53898.03;;;-139.68;30.08
10940;BME280;5522;42.696;23.494;2023-10-13T08:26:28;53896.03;;;-139.68;30.03
10940;BME280;5522;42.696;23.494;2023-10-13T08:29:18;53896.03;;;-139.68;30.21
10940;BME280;5522;42.696;23.494;2023-10-13T08:32:02;53952.31;;;-139.68;31.07
10940;BME280;5522;42.696;23.494;2023-10-13T08:34:47;53920.16;;;-139.68;31.45
10940;BME280;5522;42.696;23.494;2023-10-13T08:37:35;53926.19;;;-139.68;31.65
10940;BME280;5522;42.696;23.494;2023-10-13T08:40:13;53934.22;;;-139.68;30.96
10940;BME280;5522;42.696;23.494;2023-10-13T08:43:05;53892.00;;;-139.68;30.07
10940;BME280;5522;42.696;23.494;2023-10-13T08:45:39;53861.84;;;-139.68;28.48
10940;BME280;5522;42.696;23.494;2023-10-13T08:48:24;53910.09;;;-139.68;27.51
10940;BME280;5522;42.696;23.494;2023-10-13T08:51:00;53888.00;;;-139.68;27.21
10940;BME280;5522;42.696;23.494;2023-10-13T08:53:37;53900.06;;;-139.68;26.56
10940;BME280;5522;42.696;23.494;2023-10-13T08:56:17;53932.22;;;-139.68;27.07
10940;BME280;5522;42.696;23.494;2023-10-13T08:58:46;53912.13;;;-139.68;27.86
10940;BME280;5522;42.696;23.494;2023-10-13T09:01:32;53924.16;;;-139.68;28.96
10940;BME280;5522;42.696;23.494;2023-10-13T09:04:12;53912.13;;;-139.68;28.13
10940;BME280;5522;42.696;23.494;2023-10-13T09:06:51;53926.19;;;-139.68;28.14
10940;BME280;5522;42.696;23.494;2023-10-13T09:09:45;53900.06;;;-139.68;27.60
10940;BME280;5522;42.696;23.494;2023-10-13T09:12:58;53879.94;;;-139.68;27.45
10940;BME280;5522;42.696;23.494;2023-10-13T09:15:30;53867.88;;;-139.68;26.34
10940;BME280;5522;42.696;23.494;2023-10-13T09:18:11;53879.94;;;-139.68;25.46
10940;BME280;5522;42.696;23.494;2023-10-13T09:20:40;53910.09;;;-139.68;24.80
10940;BME280;5522;42.696;23.494;2023-10-13T09:23:13;53892.00;;;-139.68;24.52
10940;BME280;5522;42.696;23.494;2023-10-13T09:25:50;53863.88;;;-139.68;23.99
10940;BME280;5522;42.696;23.494;2023-10-13T09:28:24;53873.91;;;-139.68;24.45
10940;BME280;5522;42.696;23.494;2023-10-13T09:30:55;53920.16;;;-139.68;24.91
10940;BME280;5522;42.696;23.494;2023-10-13T09:33:23;53904.06;;;-139.68;24.45
10940;BME280;5522;42.696;23.494;2023-10-13T09:35:58;53871.91;;;-139.68;24.02
10940;BME280;5522;42.696;23.494;2023-10-13T09:38:27;53892.00;;;-139.68;24.55
10940;BME280;5522;42.696;23.494;2023-10-13T09:40:54;53906.06;;;-139.68;23.79
10940;BME280;5522;42.696;23.494;2023-10-13T09:43:23;53916.13;;;-139.68;24.55
10940;BME280;5522;42.696;23.494;2023-10-13T09:45:58;53904.06;;;-139.68;26.02
10940;BME280;5522;42.696;23.494;2023-10-13T09:48:37;53914.13;;;-139.68;25.87
10940;BME280;5522;42.696;23.494;2023-10-13T09:51:11;53918.16;;;-139.68;25.55
10940;BME280;5522;42.696;23.494;2023-10-13T09:53:40;53926.19;;;-139.68;25.70
10940;BME280;5522;42.696;23.494;2023-10-13T09:56:12;53924.16;;;-139.68;26.35
10940;BME280;5522;42.696;23.494;2023-10-13T09:58:48;53916.13;;;-139.68;27.33
10940;BME280;5522;42.696;23.494;2023-10-13T10:01:24;53948.31;;;-139.68;28.01
10940;BME280;5522;42.696;23.494;2023-10-13T10:04:08;53924.16;;;-139.68;28.91
10940;BME280;5522;42.696;23.494;2023-10-13T10:06:39;53954.31;;;-139.68;27.92
10940;BME280;5522;42.696;23.494;2023-10-13T10:09:12;53934.22;;;-139.68;27.88
10940;BME280;5522;42.696;23.494;2023-10-13T10:12:01;53888.00;;;-139.68;27.12
10940;BME280;5522;42.696;23.494;2023-10-13T10:14:56;53898.03;;;-139.68;26.76
10940;BME280;5522;42.696;23.494;2023-10-13T10:17:28;53908.09;;;-139.68;25.37
10940;BME280;5522;42.696;23.494;2023-10-13T10:19:58;53888.00;;;-139.68;25.55
10940;BME280;5522;42.696;23.494;2023-10-13T10:22:32;53877.94;;;-139.68;24.75
10940;BME280;5522;42.696;23.494;2023-10-13T10:25:03;53920.16;;;-139.68;25.62
10940;BME280;5522;42.696;23.494;2023-10-13T10:27:33;53912.13;;;-139.68;25.28
10940;BME280;5522;42.696;23.494;2023-10-13T10:30:01;53908.09;;;-139.68;24.86
10940;BME280;5522;42.696;23.494;2023-10-13T10:32:33;53912.13;;;-139.68;25.13
10940;BME280;5522;42.696;23.494;2023-10-13T10:35:08;53912.13;;;-139.68;24.92
10940;BME280;5522;42.696;23.494;2023-10-13T10:37:40;53879.94;;;-139.68;25.06
10940;BME280;5522;42.696;23.494;2023-10-13T10:40:14;53881.97;;;-139.68;25.46
10940;BME280;5522;42.696;23.494;2023-10-13T10:42:58;53908.09;;;-139.68;25.72
10940;BME280;5522;42.696;23.494;2023-10-13T10:45:26;53896.03;;;-139.68;25.32
10940;BME280;5522;42.696;23.494;2023-10-13T10:47:58;53888.00;;;-139.68;25.62
10940;BME280;5522;42.696;23.494;2023-10-13T10:50:26;53902.06;;;-139.68;25.43
10940;BME280;5522;42.696;23.494;2023-10-13T10:53:03;53944.28;;;-139.68;27.11
10940;BME280;5522;42.696;23.494;2023-10-13T10:55:35;53883.97;;;-139.68;27.03
10940;BME280;5522;42.696;23.494;2023-10-13T10:58:03;53918.16;;;-139.68;28.33
10940;BME280;5522;42.696;23.494;2023-10-13T11:00:31;53948.31;;;-139.68;27.87
10940;BME280;5522;42.696;23.494;2023-10-13T11:03:11;53904.06;;;-139.68;27.17
10940;BME280;5522;42.696;23.494;2023-10-13T11:05:45;53926.19;;;-139.68;28.90
10940;BME280;5522;42.696;23.494;2023-10-13T11:08:22;53932.22;;;-139.68;27.85
10940;BME280;5522;42.696;23.494;2023-10-13T11:10:58;53968.41;;;-139.68;29.20
10940;BME280;5522;42.696;23.494;2023-10-13T11:13:26;53916.13;;;-139.68;28.12
10940;BME280;5522;42.696;23.494;2023-10-13T11:15:56;53944.28;;;-139.68;29.34
10940;BME280;5522;42.696;23.494;2023-10-13T11:18:29;53926.19;;;-139.68;29.67
10940;BME280;5522;42.696;23.494;2023-10-13T11:20:59;53950.31;;;-139.68;29.65
10940;BME280;5522;42.696;23.494;2023-10-13T11:23:30;53942.25;;;-139.68;30.38
10940;BME280;5522;42.696;23.494;2023-10-13T11:25:59;53883.97;;;-139.68;30.89
10940;BME280;5522;42.696;23.494;2023-10-13T11:28:26;53928.19;;;-139.68;29.61
10940;BME280;5522;42.696;23.494;2023-10-13T11:30:54;53956.34;;;-139.68;30.07
10940;BME280;5522;42.696;23.494;2023-10-13T11:33:24;53924.16;;;-139.68;30.02
10940;BME280;5522;42.696;23.494;2023-10-13T11:35:53;53926.19;;;-139.68;30.15
10940;BME280;5522;42.696;23.494;2023-10-13T11:38:23;53932.22;;;-139.68;30.94
10940;BME280;5522;42.696;23.494;2023-10-13T11:40:55;53944.28;;;-139.68;30.52
10940;BME280;5522;42.696;23.494;2023-10-13T11:43:50;53944.28;;;-139.68;29.83
10940;BME280;5522;42.696;23.494;2023-10-13T11:46:32;53956.34;;;-139.68;30.74
10940;BME280;5522;42.696;23.494;2023-10-13T11:49:17;53940.25;;;-139.68;31.09
10940;BME280;5522;42.696;23.494;2023-10-13T11:51:46;53900.06;;;-139.68;30.74
10940;BME280;5522;42.696;23.494;2023-10-13T11:54:13;53908.09;;;-139.68;29.88
10940;BME280;5522;42.696;23.494;2023-10-13T11:56:41;53898.03;;;-139.68;29.30
10940;BME280;5522;42.696;23.494;2023-10-13T11:59:09;53924.16;;;-139.68;30.49
10940;BME280;5522;42.696;23.494;2023-10-13T12:01:43;53924.16;;;-139.68;31.00
10940;BME280;5522;42.696;23.494;2023-10-13T12:04:28;53924.16;;;-139.68;31.34
10940;BME280;5522;42.696;23.494;2023-10-13T12:06:58;53912.13;;;-139.68;30.56
10940;BME280;5522;42.696;23.494;2023-10-13T12:09:40;53920.16;;;-139.68;30.86
10940;BME280;5522;42.696;23.494;2023-10-13T12:12:17;53914.13;;;-139.68;29.75
10940;BME280;5522;42.696;23.494;2023-10-13T12:14:46;53932.22;;;-139.68;30.07
10940;BME280;5522;42.696;23.494;2023-10-13T12:17:20;53932.22;;;-139.68;30.29
10940;BME280;5522;42.696;23.494;2023-10-13T12:19:51;53940.25;;;-139.68;30.57
10940;BME280;5522;42.696;23.494;2023-10-13T12:22:18;53916.13;;;-139.68;29.53
10940;BME280;5522;42.696;23.494;2023-10-13T12:24:52;53936.22;;;-139.68;29.50
10940;BME280;5522;42.696;23.494;2023-10-13T12:27:19;53940.25;;;-139.68;29.75
10940;BME280;5522;42.696;23.494;2023-10-13T12:29:51;53962.38;;;-139.68;29.73
10940;BME280;5522;42.696;23.494;2023-10-13T12:32:19;53930.22;;;-139.68;29.92
10940;BME280;5522;42.696;23.494;2023-10-13T12:34:48;53936.22;;;-139.68;30.29
10940;BME280;5522;42.696;23.494;2023-10-13T12:37:27;53920.16;;;-139.68;30.35
10940;BME280;5522;42.696;23.494;2023-10-13T12:40:13;53924.16;;;-139.68;30.44
10940;BME280;5522;42.696;23.494;2023-10-13T12:42:57;53938.25;;;-139.68;30.12
10940;BME280;5522;42.696;23.494;2023-10-13T12:45:44;53942.25;;;-139.68;29.84
10940;BME280;5522;42.696;23.494;2023-10-13T12:48:31;53877.94;;;-139.68;29.92
10940;BME280;5522;42.696;23.494;2023-10-13T12:51:16;53879.94;;;-139.68;30.32
10940;BME280;5522;42.696;23.494;2023-10-13T12:54:03;53877.94;;;-139.68;31.11
10940;BME280;5522;42.696;23.494;2023-10-13T12:56:32;53936.22;;;-139.68;30.50
10940;BME280;5522;42.696;23.494;2023-10-13T12:58:59;53916.13;;;-139.68;31.02
10940;BME280;5522;42.696;23.494;2023-10-13T13:01:27;53950.31;;;-139.68;30.86
10940;BME280;5522;42.696;23.494;2023-10-13T13:04:00;53908.09;;;-139.68;30.94
10940;BME280;5522;42.696;23.494;2023-10-13T13:06:29;53910.09;;;-139.68;31.50
10940;BME280;5522;42.696;23.494;2023-10-13T13:08:56;53928.19;;;-139.68;31.51
10940;BME280;5522;42.696;23.494;2023-10-13T13:11:24;53942.25;;;-139.68;31.40
10940;BME280;5522;42.696;23.494;2023-10-13T13:13:54;53904.06;;;-139.68;31.58
10940;BME280;5522;42.696;23.494;2023-10-13T13:16:20;53920.16;;;-139.68;30.82
10940;BME280;5522;42.696;23.494;2023-10-13T13:18:51;53938.25;;;-139.68;30.92
10940;BME280;5522;42.696;23.494;2023-10-13T13:21:20;53922.16;;;-139.68;30.92
10940;BME280;5522;42.696;23.494;2023-10-13T13:23:48;53906.06;;;-139.68;30.91
10940;BME280;5522;42.696;23.494;2023-10-13T13:26:15;53898.03;;;-139.68;30.25
10940;BME280;5522;42.696;23.494;2023-10-13T13:28:45;53873.91;;;-139.68;30.80
10940;BME280;5522;42.696;23.494;2023-10-13T13:31:15;53936.22;;;-139.68;30.69